createdAt,value
2019-02-26T00:01:26.235Z,11.33
2019-02-26T00:03:56.164Z,10.82
2019-02-26T00:06:27.874Z,11.68
2019-02-26T00:08:58.781Z,10.38
2019-02-26T00:11:29.017Z,11.57
2019-02-26T00:13:59.247Z,10.95
2019-02-26T00:16:28.424Z,10.72
2019-02-26T00:19:00.786Z,11.75
2019-02-26T00:21:29.343Z,10.63
2019-02-26T00:23:59.308Z,11.08
2019-02-26T00:26:28.498Z,11.80
2019-02-26T00:28:59.637Z,10.82
2019-02-26T00:31:30.405Z,11.85
2019-02-26T00:33:59.385Z,10.20
2019-02-26T00:36:29.749Z,10.80
2019-02-26T00:39:00.716Z,11.08
2019-02-26T00:41:33.482Z,11.20
2019-02-26T00:44:04.143Z,11.28
2019-02-26T00:46:34.746Z,11.93
2019-02-26T00:49:05.767Z,11.50
2019-02-26T00:51:34.859Z,11.63
2019-02-26T00:54:04.182Z,10.78
2019-02-26T00:56:36.374Z,10.38
2019-02-26T00:59:05.280Z,11.50
2019-02-26T01:01:34.583Z,10.68
2019-02-26T01:04:03.697Z,10.08
2019-02-26T01:06:33.514Z,10.00
2019-02-26T01:09:04.141Z,9.65
2019-02-26T01:11:33.849Z,10.78
2019-02-26T01:14:03.037Z,9.45
2019-02-26T01:16:32.275Z,10.20
2019-02-26T01:19:01.453Z,10.32
2019-02-26T01:21:31.122Z,9.45
2019-02-26T01:24:02.414Z,9.90
2019-02-26T01:26:32.155Z,9.58
2019-02-26T01:29:01.410Z,10.75
2019-02-26T01:31:32.120Z,9.20
2019-02-26T01:34:01.426Z,9.35
2019-02-26T01:36:30.627Z,9.10
2019-02-26T01:38:59.888Z,8.55
2019-02-26T01:41:29.002Z,8.00
2019-02-26T01:43:58.172Z,8.43
2019-02-26T01:46:27.404Z,9.80
2019-02-26T01:48:57.537Z,8.50
2019-02-26T01:51:28.636Z,9.23
2019-02-26T01:53:57.988Z,8.60
2019-02-26T01:56:27.193Z,8.75
2019-02-26T01:58:57.009Z,9.73
2019-02-26T02:01:27.168Z,8.63
2019-02-26T02:03:57.430Z,9.78
2019-02-26T02:06:26.566Z,9.33
2019-02-26T02:08:56.849Z,8.38
2019-02-26T02:11:28.306Z,8.48
2019-02-26T02:13:56.907Z,8.73
2019-02-26T02:16:27.283Z,8.75
2019-02-26T02:18:58.177Z,9.63
2019-02-26T02:21:30.909Z,10.03
2019-02-26T02:23:59.053Z,10.20
2019-02-26T02:26:28.282Z,10.30
2019-02-26T02:28:57.482Z,9.75
2019-02-26T02:31:28.050Z,9.63
2019-02-26T02:33:57.399Z,9.50
2019-02-26T02:36:26.806Z,9.68
2019-02-26T02:38:57.238Z,8.95
2019-02-26T02:41:26.385Z,10.95
2019-02-26T02:43:55.710Z,9.98
2019-02-26T02:46:24.847Z,10.13
2019-02-26T02:48:53.976Z,9.08
2019-02-26T02:51:25.542Z,9.55
2019-02-26T02:53:56.471Z,9.78
2019-02-26T02:56:24.944Z,8.85
2019-02-26T02:58:54.050Z,8.13
2019-02-26T03:01:25.818Z,7.78
2019-02-26T03:03:57.943Z,8.63
2019-02-26T03:06:27.316Z,9.10
2019-02-26T03:08:55.730Z,10.63
2019-02-26T03:11:24.889Z,8.73
2019-02-26T03:13:54.109Z,9.23
2019-02-26T03:16:27.019Z,8.20
2019-02-26T03:18:56.262Z,8.28
2019-02-26T03:21:27.721Z,8.73
2019-02-26T03:23:57.795Z,8.00
2019-02-26T03:26:28.025Z,8.90
2019-02-26T03:28:58.371Z,9.18
2019-02-26T03:31:31.058Z,8.08
2019-02-26T03:34:04.145Z,8.55
2019-02-26T03:36:31.396Z,8.43
2019-02-26T03:39:02.642Z,8.78
2019-02-26T03:41:32.687Z,8.43
2019-02-26T03:44:03.336Z,8.80
2019-02-26T03:46:32.711Z,8.73
2019-02-26T03:49:02.694Z,8.93
2019-02-26T03:51:32.566Z,7.95
2019-02-26T03:54:01.683Z,9.53
2019-02-26T03:56:30.859Z,9.35
2019-02-26T03:59:00.791Z,10.00
2019-02-26T04:01:30.763Z,10.23
2019-02-26T04:04:02.357Z,8.53
2019-02-26T04:06:33.216Z,9.20
2019-02-26T04:09:01.682Z,8.60
2019-02-26T04:11:32.059Z,8.40
2019-02-26T04:14:01.222Z,9.48
2019-02-26T04:16:32.374Z,8.00
2019-02-26T04:19:01.330Z,9.53
2019-02-26T04:21:48.750Z,8.13
2019-02-26T04:24:18.066Z,9.00
2019-02-26T04:26:48.712Z,8.20
2019-02-26T04:29:19.392Z,8.93
2019-02-26T04:31:54.656Z,8.40
2019-02-26T04:34:25.226Z,8.88
2019-02-26T04:37:07.139Z,9.15
2019-02-26T04:39:52.312Z,8.08
2019-02-26T04:42:25.439Z,9.98
2019-02-26T04:45:09.229Z,9.15
2019-02-26T04:47:40.934Z,11.10
2019-02-26T04:50:10.274Z,9.68
2019-02-26T04:52:42.830Z,8.48
2019-02-26T04:55:10.356Z,9.05
2019-02-26T04:57:42.131Z,9.43
2019-02-26T05:00:10.820Z,8.20
2019-02-26T05:02:40.093Z,9.95
2019-02-26T05:05:09.395Z,8.53
2019-02-26T05:07:41.336Z,8.95
2019-02-26T05:10:09.469Z,8.73
2019-02-26T05:12:40.147Z,9.00
2019-02-26T05:15:13.964Z,8.28
2019-02-26T05:17:40.504Z,8.28
2019-02-26T05:20:12.839Z,8.33
2019-02-26T05:22:40.629Z,8.85
2019-02-26T05:25:13.799Z,9.10
2019-02-26T05:27:42.868Z,8.95
2019-02-26T05:30:15.569Z,9.33
2019-02-26T05:32:42.869Z,10.80
2019-02-26T05:35:14.438Z,10.88
2019-02-26T05:37:43.992Z,8.95
2019-02-26T05:40:15.477Z,8.15
2019-02-26T05:42:44.169Z,8.50
2019-02-26T05:45:13.551Z,9.43
2019-02-26T05:47:43.666Z,8.43
2019-02-26T05:50:16.611Z,9.48
2019-02-26T05:52:44.533Z,8.70
2019-02-26T05:55:16.403Z,8.65
2019-02-26T05:57:44.523Z,8.75
2019-02-26T06:00:17.217Z,8.98
2019-02-26T06:02:47.699Z,9.20
2019-02-26T06:05:18.362Z,8.85
2019-02-26T06:07:46.303Z,9.90
2019-02-26T06:10:15.559Z,9.93
2019-02-26T06:12:46.691Z,10.10
2019-02-26T06:15:15.611Z,8.08
2019-02-26T06:17:45.776Z,8.43
2019-02-26T06:20:20.038Z,9.00
2019-02-26T06:22:49.173Z,11.10
2019-02-26T06:25:23.648Z,9.58
2019-02-26T06:27:49.148Z,9.55
2019-02-26T06:30:18.383Z,9.15
2019-02-26T06:32:47.680Z,9.08
2019-02-26T06:35:19.141Z,9.48
2019-02-26T06:37:47.798Z,9.10
2019-02-26T06:40:17.428Z,9.68
2019-02-26T06:42:46.606Z,9.53
2019-02-26T06:45:16.784Z,9.08
2019-02-26T06:47:48.566Z,9.45
2019-02-26T06:50:18.835Z,8.25
2019-02-26T06:52:50.611Z,8.60
2019-02-26T06:55:18.955Z,9.23
2019-02-26T06:57:50.776Z,8.25
2019-02-26T07:00:21.759Z,8.90
2019-02-26T07:02:50.014Z,9.20
2019-02-26T07:05:19.317Z,8.23
2019-02-26T07:07:48.465Z,8.30
2019-02-26T07:10:21.545Z,7.78
2019-02-26T07:12:50.540Z,8.73
2019-02-26T07:15:19.311Z,8.15
2019-02-26T07:17:50.193Z,8.38
2019-02-26T07:20:19.423Z,9.70
2019-02-26T07:22:51.402Z,9.18
2019-02-26T07:25:20.673Z,9.85
2019-02-26T07:27:51.317Z,11.20
2019-02-26T07:30:20.632Z,9.95
2019-02-26T07:32:49.921Z,9.70
2019-02-26T07:35:19.070Z,9.80
2019-02-26T07:37:48.410Z,9.18
2019-02-26T07:40:18.729Z,9.88
2019-02-26T07:42:49.316Z,12.30
2019-02-26T07:45:22.228Z,12.00
2019-02-26T07:47:51.453Z,17.25
2019-02-26T07:50:21.443Z,17.25
2019-02-26T07:52:52.138Z,23.00
2019-02-26T07:55:21.524Z,24.02
2019-02-26T07:57:53.052Z,17.57
2019-02-26T08:00:22.724Z,22.13
2019-02-26T08:02:54.004Z,19.85
2019-02-26T08:05:25.727Z,19.45
2019-02-26T08:07:56.298Z,17.00
2019-02-26T08:10:24.406Z,17.10
2019-02-26T08:12:56.149Z,17.50
2019-02-26T08:15:24.499Z,18.57
2019-02-26T08:17:57.767Z,17.30
2019-02-26T08:20:24.646Z,15.15
2019-02-26T08:22:54.602Z,16.00
2019-02-26T08:25:24.793Z,13.80
2019-02-26T08:27:56.380Z,16.90
2019-02-26T08:30:26.132Z,13.08
2019-02-26T08:32:56.351Z,13.13
2019-02-26T08:35:27.421Z,10.50
2019-02-26T08:37:56.497Z,10.38
2019-02-26T08:40:25.668Z,9.83
2019-02-26T08:42:54.787Z,9.40
2019-02-26T08:45:25.776Z,9.80
2019-02-26T08:47:54.911Z,9.53
2019-02-26T08:50:24.083Z,10.08
2019-02-26T08:52:55.549Z,10.68
2019-02-26T08:55:24.666Z,9.65
2019-02-26T08:57:56.402Z,9.15
2019-02-26T09:00:24.850Z,8.48
2019-02-26T09:02:56.571Z,9.08
2019-02-26T09:05:26.335Z,9.43
2019-02-26T09:07:55.609Z,10.45
2019-02-26T09:10:24.828Z,24.65
2019-02-26T09:12:55.095Z,12.20
2019-02-26T09:15:24.298Z,10.70
2019-02-26T09:17:53.497Z,10.13
2019-02-26T09:20:22.726Z,9.50
2019-02-26T09:22:54.518Z,9.43
2019-02-26T09:25:25.500Z,9.53
2019-02-26T09:27:53.642Z,8.95
2019-02-26T09:30:22.846Z,14.00
2019-02-26T09:32:52.593Z,10.88
2019-02-26T09:35:27.056Z,16.55
2019-02-26T09:37:55.432Z,9.03
2019-02-26T09:40:26.070Z,9.43
2019-02-26T09:42:56.746Z,8.38
2019-02-26T09:45:28.764Z,9.85
2019-02-26T09:47:57.995Z,9.85
2019-02-26T09:50:28.615Z,10.15
2019-02-26T09:52:59.182Z,11.18
2019-02-26T09:55:28.603Z,10.80
2019-02-26T09:57:57.820Z,9.88
2019-02-26T10:00:29.459Z,11.22
2019-02-26T10:02:57.915Z,10.88
2019-02-26T10:05:27.138Z,10.23
2019-02-26T10:07:58.768Z,11.60
2019-02-26T10:10:29.164Z,11.43
2019-02-26T10:12:59.898Z,11.35
2019-02-26T10:15:28.895Z,12.25
2019-02-26T10:17:59.599Z,12.55
2019-02-26T10:20:31.614Z,11.38
2019-02-26T10:23:02.861Z,11.68
2019-02-26T10:25:32.103Z,11.57
2019-02-26T10:28:06.065Z,11.28
2019-02-26T10:30:33.940Z,10.93
2019-02-26T10:33:03.338Z,10.93
2019-02-26T10:35:33.577Z,11.15
2019-02-26T10:38:05.751Z,11.20
2019-02-26T10:40:35.552Z,10.93
2019-02-26T10:43:05.038Z,11.68
2019-02-26T10:45:38.618Z,11.68
2019-02-26T10:48:05.140Z,11.15
2019-02-26T10:50:36.693Z,12.03
2019-02-26T10:53:07.843Z,10.72
2019-02-26T10:55:39.288Z,11.73
2019-02-26T10:58:10.395Z,10.05
2019-02-26T11:00:38.084Z,11.03
2019-02-26T11:03:09.172Z,9.78
2019-02-26T11:05:39.777Z,9.00
2019-02-26T11:08:09.513Z,9.00
2019-02-26T11:10:41.855Z,9.65
2019-02-26T11:13:09.752Z,8.10
2019-02-26T11:15:38.858Z,9.15
2019-02-26T11:18:09.007Z,8.53
2019-02-26T11:20:38.844Z,8.28
2019-02-26T11:23:08.963Z,7.67
2019-02-26T11:25:38.878Z,7.85
2019-02-26T11:28:10.527Z,7.45
2019-02-26T11:30:38.947Z,8.65
2019-02-26T11:33:10.581Z,8.63
2019-02-26T11:35:41.466Z,8.30
2019-02-26T11:38:11.880Z,8.80
2019-02-26T11:40:40.725Z,9.78
2019-02-26T11:43:13.839Z,9.70
2019-02-26T11:45:41.966Z,9.43
2019-02-26T11:48:11.590Z,8.58
2019-02-26T11:50:44.201Z,9.28
2019-02-26T11:53:11.625Z,8.33
2019-02-26T11:55:40.873Z,8.90
2019-02-26T11:58:12.895Z,8.08
2019-02-26T12:00:51.590Z,9.23
2019-02-26T12:03:24.942Z,9.18
2019-02-26T12:05:54.188Z,10.15
2019-02-26T12:08:25.715Z,9.78
2019-02-26T12:10:57.752Z,10.08
2019-02-26T12:13:27.629Z,10.13
2019-02-26T12:15:55.963Z,9.60
2019-02-26T12:18:25.192Z,8.93
2019-02-26T12:20:54.428Z,6.58
2019-02-26T12:23:23.661Z,6.50
2019-02-26T12:25:55.331Z,6.87
2019-02-26T12:28:25.435Z,7.10
2019-02-26T12:30:54.550Z,6.55
2019-02-26T12:33:23.771Z,6.92
2019-02-26T12:35:55.553Z,7.50
2019-02-26T12:38:23.853Z,6.60
2019-02-26T12:40:53.507Z,7.70
2019-02-26T12:43:22.752Z,6.72
2019-02-26T12:45:54.948Z,6.33
2019-02-26T12:48:22.876Z,6.67
2019-02-26T12:50:55.062Z,6.15
2019-02-26T12:53:23.609Z,6.45
2019-02-26T12:55:54.290Z,6.55
2019-02-26T12:58:26.806Z,6.78
2019-02-26T13:00:54.662Z,7.00
2019-02-26T13:03:23.820Z,7.17
2019-02-26T13:05:52.966Z,6.85
2019-02-26T13:08:24.157Z,6.83
2019-02-26T13:10:56.119Z,7.50
2019-02-26T13:13:23.678Z,7.60
2019-02-26T13:15:52.823Z,7.28
2019-02-26T13:18:22.050Z,7.85
2019-02-26T13:20:56.760Z,7.37
2019-02-26T13:23:22.077Z,7.47
2019-02-26T13:25:51.152Z,7.72
2019-02-26T13:28:20.350Z,8.23
2019-02-26T13:30:49.542Z,6.92
2019-02-26T13:33:22.188Z,7.25
2019-02-26T13:35:52.399Z,7.83
2019-02-26T13:38:24.253Z,6.45
2019-02-26T13:40:51.002Z,6.95
2019-02-26T13:43:20.234Z,6.83
2019-02-26T13:45:49.467Z,6.58
2019-02-26T13:48:19.910Z,6.83
2019-02-26T13:50:49.138Z,6.33
2019-02-26T13:53:18.351Z,5.55
2019-02-26T13:55:47.590Z,5.90
2019-02-26T13:58:16.748Z,6.87
2019-02-26T14:00:45.873Z,6.15
2019-02-26T14:03:15.542Z,6.35
2019-02-26T14:05:44.723Z,6.20
2019-02-26T14:08:13.905Z,6.72
2019-02-26T14:10:43.098Z,6.62
2019-02-26T14:13:12.321Z,6.17
2019-02-26T14:15:41.495Z,5.83
2019-02-26T14:18:10.644Z,6.33
2019-02-26T14:20:39.799Z,6.17
2019-02-26T14:23:08.994Z,6.55
2019-02-26T14:25:38.118Z,5.97
2019-02-26T14:28:07.286Z,6.62
2019-02-26T14:30:36.534Z,6.58
2019-02-26T14:33:06.247Z,6.65
2019-02-26T14:35:35.391Z,6.22
2019-02-26T14:38:04.748Z,6.10
2019-02-26T14:40:33.963Z,6.67
2019-02-26T14:43:03.235Z,6.92
2019-02-26T14:45:32.415Z,6.85
2019-02-26T14:48:01.725Z,6.50
2019-02-26T14:50:33.095Z,6.42
2019-02-26T14:53:02.346Z,7.22
2019-02-26T14:55:31.561Z,6.72
2019-02-26T14:58:00.771Z,7.12
2019-02-26T15:00:30.694Z,7.62
2019-02-26T15:02:59.918Z,9.30
2019-02-26T15:05:29.047Z,7.83
2019-02-26T15:07:58.278Z,7.95
2019-02-26T15:10:27.481Z,7.00
2019-02-26T15:12:56.935Z,8.45
2019-02-26T15:15:26.153Z,8.00
2019-02-26T15:17:55.297Z,8.13
2019-02-26T15:20:24.927Z,7.33
2019-02-26T15:22:54.176Z,7.37
2019-02-26T15:25:23.990Z,7.60
2019-02-26T15:27:53.230Z,7.75
2019-02-26T15:30:22.673Z,7.95
2019-02-26T15:32:51.901Z,7.20
2019-02-26T15:35:21.063Z,7.87
2019-02-26T15:37:50.239Z,7.33
2019-02-26T15:40:20.922Z,6.62
2019-02-26T15:42:52.462Z,7.92
2019-02-26T15:45:30.287Z,7.25
2019-02-26T15:48:03.466Z,7.53
2019-02-26T15:50:30.250Z,8.43
2019-02-26T15:52:59.407Z,7.92
2019-02-26T15:55:29.258Z,7.65
2019-02-26T15:58:03.102Z,7.45
2019-02-26T16:00:29.642Z,7.20
2019-02-26T16:02:59.363Z,8.20
2019-02-26T16:05:30.911Z,8.28
2019-02-26T16:08:00.053Z,8.00
2019-02-26T16:10:29.307Z,8.15
2019-02-26T16:13:04.586Z,8.73
2019-02-26T16:15:36.303Z,8.68
2019-02-26T16:18:05.426Z,9.03
2019-02-26T16:20:34.591Z,10.25
2019-02-26T16:23:03.806Z,8.93
2019-02-26T16:25:33.024Z,8.80
2019-02-26T16:28:02.843Z,8.88
2019-02-26T16:30:32.276Z,8.28
2019-02-26T16:33:01.475Z,9.08
2019-02-26T16:35:30.663Z,8.33
2019-02-26T16:37:59.787Z,8.73
2019-02-26T16:40:32.245Z,9.18
2019-02-26T16:42:59.798Z,9.53
2019-02-26T16:45:28.975Z,9.20
2019-02-26T16:47:58.118Z,9.55
2019-02-26T16:50:31.477Z,9.15
2019-02-26T16:53:01.143Z,9.25
2019-02-26T16:55:30.847Z,8.98
2019-02-26T16:58:03.153Z,9.55
2019-02-26T17:00:31.278Z,8.68
2019-02-26T17:03:01.356Z,8.98
2019-02-26T17:05:30.662Z,8.63
2019-02-26T17:08:01.221Z,8.98
2019-02-26T17:10:30.718Z,8.30
2019-02-26T17:13:02.341Z,8.53
2019-02-26T17:15:31.457Z,8.65
2019-02-26T17:18:00.660Z,8.45
2019-02-26T17:20:30.942Z,8.63
2019-02-26T17:23:00.144Z,8.88
2019-02-26T17:25:29.294Z,8.50
2019-02-26T17:27:58.517Z,8.78
2019-02-26T17:30:27.804Z,8.25
2019-02-26T17:32:58.156Z,8.13
2019-02-26T17:35:29.506Z,8.88
2019-02-26T17:37:58.233Z,8.95
2019-02-26T17:40:27.465Z,11.30
2019-02-26T17:42:56.681Z,12.20
2019-02-26T17:45:29.718Z,13.08
2019-02-26T17:47:58.954Z,14.35
2019-02-26T17:50:30.656Z,16.27
2019-02-26T17:52:59.968Z,14.50
2019-02-26T17:55:29.110Z,16.67
2019-02-26T17:57:58.257Z,16.50
2019-02-26T18:00:29.060Z,19.98
2019-02-26T18:02:58.282Z,22.40
2019-02-26T18:05:27.431Z,23.05
2019-02-26T18:07:56.682Z,20.72
2019-02-26T18:10:26.469Z,18.17
2019-02-26T18:12:55.888Z,14.98
2019-02-26T18:15:25.029Z,16.35
2019-02-26T18:17:54.258Z,17.37
2019-02-26T18:20:28.097Z,19.10
2019-02-26T18:22:54.265Z,28.62
2019-02-26T18:25:23.987Z,26.93
2019-02-26T18:27:53.170Z,21.87
2019-02-26T18:30:23.125Z,19.20
2019-02-26T18:32:55.636Z,16.77
2019-02-26T18:35:23.173Z,18.52
2019-02-26T18:37:52.359Z,16.40
2019-02-26T18:40:21.578Z,17.85
2019-02-26T18:42:50.902Z,16.67
2019-02-26T18:45:21.516Z,17.60
2019-02-26T18:47:50.852Z,18.27
2019-02-26T18:50:20.100Z,17.48
2019-02-26T18:52:49.371Z,18.05
2019-02-26T18:55:19.363Z,18.20
2019-02-26T18:57:48.650Z,18.05
2019-02-26T19:00:18.975Z,19.32
2019-02-26T19:02:49.762Z,19.35
2019-02-26T19:05:21.091Z,19.25
2019-02-26T19:07:49.941Z,21.77
2019-02-26T19:10:20.946Z,18.55
2019-02-26T19:12:50.347Z,19.40
2019-02-26T19:15:20.384Z,18.48
2019-02-26T19:17:50.651Z,18.48
2019-02-26T19:20:21.106Z,16.37
2019-02-26T19:22:51.937Z,17.20
2019-02-26T19:25:21.349Z,18.40
2019-02-26T19:27:52.789Z,17.48
2019-02-26T19:30:22.978Z,16.82
2019-02-26T19:32:52.212Z,15.75
2019-02-26T19:35:23.282Z,17.92
2019-02-26T19:37:56.835Z,16.62
2019-02-26T19:40:27.675Z,16.07
2019-02-26T19:42:56.988Z,17.35
2019-02-26T19:45:26.153Z,18.05
2019-02-26T19:47:55.951Z,17.35
2019-02-26T19:50:25.861Z,18.70
2019-02-26T19:52:57.176Z,17.45
2019-02-26T19:55:27.485Z,17.05
2019-02-26T19:57:56.718Z,17.15
2019-02-26T20:00:26.008Z,18.37
2019-02-26T20:02:55.280Z,16.82
2019-02-26T20:05:24.533Z,17.15
2019-02-26T20:07:53.784Z,16.37
2019-02-26T20:10:23.043Z,16.42
2019-02-26T20:12:54.018Z,18.15
2019-02-26T20:15:23.150Z,18.27
2019-02-26T20:17:52.483Z,20.48
2019-02-26T20:20:21.978Z,20.55
2019-02-26T20:22:51.313Z,20.00
2019-02-26T20:25:20.603Z,18.75
2019-02-26T20:27:49.890Z,18.05
2019-02-26T20:30:20.215Z,19.50
2019-02-26T20:32:49.441Z,18.20
2019-02-26T20:35:18.838Z,18.12
2019-02-26T20:37:48.068Z,17.12
2019-02-26T20:40:21.497Z,19.45
2019-02-26T20:42:50.816Z,18.25
2019-02-26T20:45:22.566Z,17.05
2019-02-26T20:47:51.475Z,17.62
2019-02-26T20:50:22.397Z,17.10
2019-02-26T20:52:51.687Z,16.75
2019-02-26T20:55:33.776Z,17.02
2019-02-26T20:58:04.409Z,17.23
2019-02-26T21:00:33.659Z,17.23
2019-02-26T21:03:02.864Z,19.60
2019-02-26T21:05:32.296Z,18.15
2019-02-26T21:08:01.614Z,19.07
2019-02-26T21:10:33.359Z,17.73
2019-02-26T21:13:02.814Z,19.02
2019-02-26T21:15:32.160Z,18.20
2019-02-26T21:18:01.338Z,16.50
2019-02-26T21:20:30.663Z,16.95
2019-02-26T21:23:00.907Z,16.10
2019-02-26T21:25:30.140Z,17.23
2019-02-26T21:28:01.420Z,17.55
2019-02-26T21:30:30.322Z,16.52
2019-02-26T21:32:59.518Z,17.12
2019-02-26T21:35:28.709Z,16.87
2019-02-26T21:37:57.976Z,15.93
2019-02-26T21:40:27.211Z,17.35
2019-02-26T21:42:56.449Z,15.00
2019-02-26T21:45:25.692Z,16.27
2019-02-26T21:47:54.945Z,15.88
2019-02-26T21:50:24.174Z,14.83
2019-02-26T21:53:00.675Z,14.28
2019-02-26T21:55:24.336Z,14.60
2019-02-26T21:57:54.828Z,14.33
2019-02-26T22:00:24.604Z,16.27
2019-02-26T22:02:54.348Z,15.48
2019-02-26T22:05:23.585Z,17.17
2019-02-26T22:07:53.027Z,16.15
2019-02-26T22:10:22.369Z,15.18
2019-02-26T22:12:51.535Z,16.35
2019-02-26T22:15:20.872Z,16.87
2019-02-26T22:17:50.079Z,17.02
2019-02-26T22:20:35.496Z,17.85
2019-02-26T22:22:50.651Z,18.20
2019-02-26T22:25:20.040Z,17.75
2019-02-26T22:27:49.350Z,17.27
2019-02-26T22:30:21.431Z,16.65
2019-02-26T22:32:49.728Z,17.52
2019-02-26T22:35:18.924Z,16.05
2019-02-26T22:37:48.156Z,18.60
2019-02-26T22:40:17.349Z,16.37
2019-02-26T22:42:46.627Z,16.10
2019-02-26T22:45:16.065Z,15.95
2019-02-26T22:47:45.334Z,13.85
2019-02-26T22:50:16.024Z,14.50
2019-02-26T22:52:45.286Z,14.20
2019-02-26T22:55:17.229Z,13.15
2019-02-26T22:57:46.558Z,13.32
2019-02-26T23:00:35.395Z,13.93
2019-02-26T23:03:06.447Z,13.30
2019-02-26T23:05:35.885Z,14.10
2019-02-26T23:08:05.311Z,13.48
2019-02-26T23:10:34.926Z,13.55
2019-02-26T23:13:04.284Z,13.35
2019-02-26T23:15:33.580Z,14.60
2019-02-26T23:18:02.916Z,13.72
2019-02-26T23:20:32.550Z,13.25
2019-02-26T23:23:02.253Z,14.28
2019-02-26T23:25:33.613Z,12.88
2019-02-26T23:28:02.617Z,12.47
2019-02-26T23:30:33.214Z,12.98
2019-02-26T23:33:02.541Z,12.73
2019-02-26T23:35:31.825Z,13.48
2019-02-26T23:38:01.169Z,11.33
2019-02-26T23:40:30.597Z,13.45
2019-02-26T23:42:59.855Z,11.83
2019-02-26T23:45:29.194Z,11.80
2019-02-26T23:47:58.392Z,12.30
2019-02-26T23:50:27.711Z,13.72
2019-02-26T23:53:00.856Z,12.33
2019-02-26T23:55:28.862Z,13.62
2019-02-26T23:57:58.601Z,12.90
